Time;durP1;ratioP1;P1;durP2;ratioP2;P2;SDS_P1;SDS_P2;PMS_P1;PMS_P2;Temp;Humidity;BMP_temperature;BMP_pressure;BME280_temperature;BME280_humidity;BME280_pressure;Samples;Min_cycle;Max_cycle;Signal;HPM_P1;HPM_P2
2023/09/27 00:02:07;;;;;;;19.70;14.30;;;11.30;99.90;;;;;;5001939;28;20386;-84
2023/09/27 00:04:34;;;;;;;20.85;15.43;;;11.40;99.90;;;;;;5004482;28;20443;-84
2023/09/27 00:07:00;;;;;;;18.52;14.20;;;11.40;99.90;;;;;;4994725;28;20022;-84
2023/09/27 00:10:15;;;;;;;21.73;16.02;;;11.40;99.90;;;;;;5024505;28;20029;-84
2023/09/27 00:12:41;;;;;;;21.88;14.85;;;11.40;99.90;;;;;;4995265;28;20037;-83
2023/09/27 00:15:08;;;;;;;20.02;14.30;;;11.50;99.90;;;;;;5011633;28;20441;-84
2023/09/27 00:17:34;;;;;;;26.25;16.15;;;11.40;99.90;;;;;;5018343;28;20036;-84
2023/09/27 00:20:00;;;;;;;21.13;14.77;;;11.40;99.90;;;;;;5003588;28;20038;-84
2023/09/27 00:22:27;;;;;;;22.85;14.60;;;11.40;99.90;;;;;;4999166;28;20025;-85
2023/09/27 00:24:52;;;;;;;20.52;13.60;;;11.30;99.90;;;;;;5016361;28;20128;-84
2023/09/27 00:27:18;;;;;;;20.70;14.55;;;11.20;99.90;;;;;;5007886;28;20444;-84
2023/09/27 00:29:45;;;;;;;20.65;15.77;;;11.10;99.90;;;;;;5000381;28;20022;-84
2023/09/27 00:32:12;;;;;;;31.50;17.52;;;11.00;99.90;;;;;;4989314;28;20489;-84
2023/09/27 00:34:38;;;;;;;23.02;16.40;;;11.00;99.90;;;;;;5013532;28;20025;-84
2023/09/27 00:37:04;;;;;;;22.40;14.43;;;11.00;99.90;;;;;;5027875;28;20026;-84
2023/09/27 00:39:30;;;;;;;18.65;14.77;;;10.90;99.90;;;;;;5004044;28;20083;-84
2023/09/27 00:41:56;;;;;;;19.13;15.00;;;10.80;99.90;;;;;;4999326;28;20397;-84
2023/09/27 00:44:55;;;;;;;19.90;15.15;;;10.80;99.90;;;;;;5006388;28;20038;-84
2023/09/27 00:47:21;;;;;;;17.35;12.77;;;10.70;99.90;;;;;;5019170;28;20485;-84
2023/09/27 00:49:52;;;;;;;20.67;14.68;;;10.70;99.90;;;;;;5019793;28;20038;-84
2023/09/27 00:52:46;;;;;;;27.00;15.37;;;10.60;99.90;;;;;;5015779;28;20048;-84
2023/09/27 00:55:14;;;;;;;25.48;17.70;;;10.40;99.90;;;;;;5002923;28;20424;-84
2023/09/27 00:57:40;;;;;;;27.98;20.65;;;10.30;99.90;;;;;;4987968;28;20021;-84
2023/09/27 01:00:14;;;;;;;27.15;19.35;;;10.40;99.90;;;;;;5021336;28;20465;-83
2023/09/27 01:02:41;;;;;;;35.72;18.77;;;10.40;99.90;;;;;;5005993;28;20087;-84
2023/09/27 01:05:10;;;;;;;25.17;17.88;;;10.30;99.90;;;;;;5006728;28;20400;-85
2023/09/27 01:07:38;;;;;;;24.17;15.82;;;10.30;99.90;;;;;;4996094;28;20104;-84
2023/09/27 01:10:06;;;;;;;20.92;15.20;;;10.30;99.90;;;;;;5001223;28;20095;-84
2023/09/27 01:12:32;;;;;;;23.13;16.20;;;10.20;99.90;;;;;;5000140;28;20034;-84
2023/09/27 01:15:00;;;;;;;21.42;15.35;;;10.20;99.90;;;;;;5016325;28;20036;-84
2023/09/27 01:17:26;;;;;;;23.98;17.20;;;10.20;99.90;;;;;;5006936;28;20394;-84
2023/09/27 01:19:52;;;;;;;26.48;18.33;;;10.20;99.90;;;;;;5015245;28;20033;-83
2023/09/27 01:22:17;;;;;;;22.85;16.33;;;10.20;99.90;;;;;;5008065;28;20040;-84
2023/09/27 01:24:44;;;;;;;24.17;16.08;;;10.10;99.90;;;;;;5024327;28;20022;-84
2023/09/27 01:27:11;;;;;;;25.92;17.45;;;10.10;99.90;;;;;;5023612;28;20020;-82
2023/09/27 01:29:37;;;;;;;27.15;17.35;;;10.10;99.90;;;;;;5010321;28;20499;-84
2023/09/27 01:32:03;;;;;;;24.23;16.25;;;10.20;99.90;;;;;;5011380;28;20034;-84
2023/09/27 01:34:29;;;;;;;24.13;15.07;;;10.20;99.90;;;;;;5014425;28;20071;-84
2023/09/27 01:36:55;;;;;;;25.92;15.77;;;10.20;99.90;;;;;;5011062;28;20443;-84
2023/09/27 01:39:22;;;;;;;23.67;16.33;;;10.20;99.90;;;;;;5004342;28;20129;-84
2023/09/27 01:41:49;;;;;;;22.92;15.35;;;10.10;99.90;;;;;;4997035;28;20030;-84
2023/09/27 01:44:16;;;;;;;21.63;15.55;;;10.10;99.90;;;;;;5006666;28;20393;-84
2023/09/27 01:46:42;;;;;;;20.00;15.30;;;10.10;99.90;;;;;;5014725;28;20034;-83
2023/09/27 01:49:07;;;;;;;21.80;15.65;;;10.10;99.90;;;;;;5000220;28;20025;-84
2023/09/27 01:51:33;;;;;;;22.30;14.88;;;10.10;99.90;;;;;;4997016;28;20021;-83
2023/09/27 01:53:59;;;;;;;22.65;15.35;;;10.00;99.90;;;;;;4995397;28;20473;-84
2023/09/27 01:56:25;;;;;;;23.83;14.75;;;10.00;99.90;;;;;;4995686;28;20543;-84
2023/09/27 01:58:51;;;;;;;20.50;15.70;;;10.00;99.90;;;;;;4995538;28;20026;-83
2023/09/27 02:01:16;;;;;;;22.65;16.05;;;10.00;99.90;;;;;;4994301;28;20809;-83
2023/09/27 02:03:42;;;;;;;26.83;17.25;;;10.10;99.90;;;;;;5000098;28;20054;-84
2023/09/27 02:06:08;;;;;;;27.60;17.63;;;10.10;99.90;;;;;;4986632;28;20038;-84
2023/09/27 02:08:34;;;;;;;23.25;16.40;;;10.00;99.90;;;;;;5002081;28;20116;-83
2023/09/27 02:10:59;;;;;;;28.88;17.52;;;9.90;99.90;;;;;;4992472;28;20045;-84
2023/09/27 02:13:25;;;;;;;25.65;17.20;;;9.90;99.90;;;;;;5013949;28;20030;-84
2023/09/27 02:15:54;;;;;;;24.33;16.88;;;9.80;99.90;;;;;;4997010;28;20032;-84
2023/09/27 02:18:20;;;;;;;28.98;19.30;;;9.70;99.90;;;;;;4993743;28;20055;-84
2023/09/27 02:20:46;;;;;;;28.98;18.75;;;9.70;99.90;;;;;;4998245;28;20029;-84
2023/09/27 02:23:42;;;;;;;31.15;21.58;;;9.70;99.90;;;;;;4995472;28;20085;-84
2023/09/27 02:26:09;;;;;;;32.83;20.83;;;9.70;99.90;;;;;;4993696;28;20044;-84
2023/09/27 02:28:35;;;;;;;30.02;19.88;;;9.70;99.90;;;;;;5009895;28;20370;-84
2023/09/27 02:31:03;;;;;;;32.15;20.17;;;9.60;99.90;;;;;;5004699;28;20030;-84
2023/09/27 02:33:29;;;;;;;36.22;22.25;;;9.60;99.90;;;;;;4992901;28;20025;-84
2023/09/27 02:35:55;;;;;;;41.83;23.88;;;9.50;99.90;;;;;;5002636;28;20033;-83
2023/09/27 02:38:21;;;;;;;40.80;23.33;;;9.50;99.90;;;;;;5020165;28;20029;-84
2023/09/27 02:41:02;;;;;;;39.13;25.35;;;9.40;99.90;;;;;;5003894;28;20393;-84
2023/09/27 02:43:53;;;;;;;46.72;27.27;;;9.50;99.90;;;;;;5000307;28;20131;-83
2023/09/27 02:46:19;;;;;;;52.55;29.55;;;9.50;99.90;;;;;;5002683;28;20112;-83
2023/09/27 02:48:44;;;;;;;50.92;28.40;;;9.60;99.90;;;;;;5002123;28;20025;-84
2023/09/27 02:51:15;;;;;;;44.35;27.10;;;9.70;99.90;;;;;;5007832;28;20065;-84
2023/09/27 02:53:41;;;;;;;48.72;26.75;;;9.80;99.90;;;;;;5010684;28;20053;-84
2023/09/27 02:56:07;;;;;;;46.25;26.67;;;9.80;99.90;;;;;;4999083;28;20073;-84
2023/09/27 02:58:33;;;;;;;44.75;26.95;;;9.70;99.90;;;;;;5004732;28;20445;-84
2023/09/27 03:00:59;;;;;;;41.00;25.67;;;9.70;99.90;;;;;;5001938;28;20026;-83
2023/09/27 03:03:24;;;;;;;43.60;26.50;;;9.70;99.90;;;;;;5002134;28;20056;-84
2023/09/27 03:05:50;;;;;;;55.03;32.95;;;9.80;99.90;;;;;;5000643;28;20053;-84
2023/09/27 03:08:16;;;;;;;57.33;31.63;;;10.10;99.90;;;;;;5006065;28;20029;-84
2023/09/27 03:10:42;;;;;;;52.85;31.15;;;10.10;99.90;;;;;;4990910;28;20079;-84
2023/09/27 03:13:09;;;;;;;50.58;29.23;;;10.10;99.90;;;;;;5004719;28;20443;-84
2023/09/27 03:15:38;;;;;;;48.10;26.85;;;10.10;99.90;;;;;;4995921;28;20091;-84
2023/09/27 03:18:04;;;;;;;48.22;27.27;;;10.00;99.90;;;;;;5004991;28;20559;-84
2023/09/27 03:20:31;;;;;;;44.08;26.20;;;9.90;99.90;;;;;;5022827;28;20042;-84
2023/09/27 03:22:57;;;;;;;40.97;25.88;;;9.80;99.90;;;;;;5005769;28;20525;-84
2023/09/27 03:25:22;;;;;;;40.55;25.85;;;9.70;99.90;;;;;;5005698;28;20026;-83
2023/09/27 03:28:32;;;;;;;38.65;24.23;;;9.70;99.90;;;;;;5008002;28;20034;-83
2023/09/27 03:30:59;;;;;;;40.28;24.85;;;9.60;99.90;;;;;;5004789;28;20103;-84
2023/09/27 03:33:25;;;;;;;44.45;26.75;;;9.40;99.90;;;;;;5013700;28;20026;-84
2023/09/27 03:35:51;;;;;;;48.78;28.40;;;9.40;99.90;;;;;;5013424;28;20212;-84
2023/09/27 03:38:17;;;;;;;55.00;30.70;;;9.50;99.90;;;;;;5020592;28;20537;-84
2023/09/27 03:40:43;;;;;;;57.88;30.33;;;9.50;99.90;;;;;;5001492;28;20104;-84
2023/09/27 03:43:08;;;;;;;54.70;30.77;;;9.50;99.90;;;;;;5004403;28;20041;-84
2023/09/27 03:45:35;;;;;;;52.30;29.38;;;9.40;99.90;;;;;;5003615;28;20028;-84
2023/09/27 03:48:36;;;;;;;57.95;30.60;;;9.30;99.90;;;;;;5005261;28;20029;-84
2023/09/27 03:51:02;;;;;;;54.13;30.27;;;9.20;99.90;;;;;;4993535;28;20021;-84
2023/09/27 03:53:32;;;;;;;61.08;33.55;;;9.30;99.90;;;;;;5001000;28;20025;-84
2023/09/27 03:55:58;;;;;;;62.97;32.70;;;9.20;99.90;;;;;;4993190;28;20033;-83
2023/09/27 03:58:24;;;;;;;64.00;33.70;;;9.30;99.90;;;;;;5005849;28;20033;-84
2023/09/27 04:00:49;;;;;;;59.65;32.65;;;9.30;99.90;;;;;;4998123;28;20040;-84
2023/09/27 04:03:20;;;;;;;63.90;33.83;;;9.40;99.90;;;;;;5021845;28;20035;-84
2023/09/27 04:05:46;;;;;;;70.63;34.97;;;9.40;99.90;;;;;;4993339;28;20044;-84
2023/09/27 04:08:12;;;;;;;66.35;34.70;;;9.40;99.90;;;;;;5007988;28;20079;-84
2023/09/27 04:10:38;;;;;;;60.65;31.70;;;9.40;99.90;;;;;;4994501;28;20037;-84
2023/09/27 04:13:04;;;;;;;60.83;31.90;;;9.40;99.90;;;;;;5021857;28;20590;-84
2023/09/27 04:15:30;;;;;;;64.95;34.20;;;9.30;99.90;;;;;;5001119;28;20108;-84
2023/09/27 04:17:55;;;;;;;74.82;37.70;;;9.30;99.90;;;;;;5032224;28;20021;-84
2023/09/27 04:20:21;;;;;;;69.70;35.67;;;9.30;99.90;;;;;;5010067;28;20037;-84
2023/09/27 04:22:48;;;;;;;71.32;37.22;;;9.30;99.90;;;;;;5021681;28;20045;-84
2023/09/27 04:25:15;;;;;;;71.05;36.35;;;9.20;99.90;;;;;;5002117;28;20045;-83
2023/09/27 04:27:50;;;;;;;66.22;35.92;;;9.20;99.90;;;;;;5027161;28;20543;-83
2023/09/27 04:30:19;;;;;;;73.38;35.75;;;9.20;99.90;;;;;;5015025;28;20481;-84
2023/09/27 04:32:46;;;;;;;66.35;33.22;;;9.20;99.90;;;;;;5003306;28;20120;-84
2023/09/27 04:35:52;;;;;;;68.03;34.88;;;9.10;99.90;;;;;;5004580;28;20029;-84
2023/09/27 04:38:18;;;;;;;67.50;35.88;;;9.00;99.90;;;;;;5010114;28;20434;-83
2023/09/27 04:40:44;;;;;;;74.68;38.70;;;9.10;99.90;;;;;;5006414;28;20065;-83
2023/09/27 04:43:09;;;;;;;75.03;35.90;;;9.10;99.90;;;;;;4999960;28;20037;-84
2023/09/27 04:45:35;;;;;;;82.18;39.45;;;9.10;99.90;;;;;;5021588;28;20451;-83
2023/09/27 04:48:01;;;;;;;85.40;40.08;;;9.10;99.90;;;;;;5004928;28;20112;-83
2023/09/27 04:50:26;;;;;;;83.90;42.67;;;9.00;99.90;;;;;;5025907;28;20428;-84
2023/09/27 04:52:52;;;;;;;80.60;40.58;;;9.10;99.90;;;;;;4997403;28;20057;-83
2023/09/27 04:55:18;;;;;;;78.88;41.15;;;9.10;99.90;;;;;;5002907;28;20036;-84
2023/09/27 04:57:44;;;;;;;89.22;44.75;;;9.10;99.90;;;;;;5004975;28;20036;-83
2023/09/27 05:00:18;;;;;;;85.88;45.00;;;9.10;99.90;;;;;;4999628;28;20676;-84
2023/09/27 05:02:45;;;;;;;89.25;44.50;;;9.20;99.90;;;;;;4994161;28;20036;-83
2023/09/27 05:05:11;;;;;;;82.63;43.75;;;9.20;99.90;;;;;;5003711;28;20030;-83
2023/09/27 05:07:39;;;;;;;77.60;41.47;;;9.20;99.90;;;;;;5016286;28;20508;-83
2023/09/27 05:10:06;;;;;;;81.25;44.83;;;9.20;99.90;;;;;;4997765;28;20057;-84
2023/09/27 05:12:32;;;;;;;92.72;55.08;;;9.20;99.90;;;;;;5008101;28;20029;-84
2023/09/27 05:14:58;;;;;;;84.70;43.58;;;9.30;99.90;;;;;;5008969;28;20026;-83
2023/09/27 05:17:25;;;;;;;66.20;38.85;;;9.20;99.90;;;;;;5005318;28;21205;-83
2023/09/27 05:19:52;;;;;;;65.57;37.03;;;9.10;99.90;;;;;;5007093;28;20366;-84
2023/09/27 05:22:19;;;;;;;67.95;38.53;;;9.00;99.90;;;;;;5005399;28;20719;-84
2023/09/27 05:24:46;;;;;;;69.45;39.65;;;8.90;99.90;;;;;;5007570;28;20532;-83
2023/09/27 05:27:13;;;;;;;68.32;37.33;;;8.90;99.90;;;;;;4994324;28;20108;-84
2023/09/27 05:29:39;;;;;;;71.25;38.70;;;8.80;99.90;;;;;;5020031;28;20030;-84
2023/09/27 05:32:05;;;;;;;86.88;44.95;;;8.90;99.90;;;;;;4992075;28;20030;-83
2023/09/27 05:34:31;;;;;;;79.53;42.63;;;9.00;99.90;;;;;;4986623;28;20026;-84
2023/09/27 05:36:57;;;;;;;93.95;44.10;;;9.10;99.90;;;;;;4995695;28;20029;-84
2023/09/27 05:39:23;;;;;;;78.28;42.08;;;9.20;99.90;;;;;;4992627;28;20030;-83
2023/09/27 05:41:49;;;;;;;74.00;41.72;;;9.20;99.90;;;;;;5001482;28;20079;-83
2023/09/27 05:44:16;;;;;;;81.15;42.72;;;9.20;99.90;;;;;;4993960;28;20628;-84
2023/09/27 05:46:43;;;;;;;72.70;41.00;;;9.20;99.90;;;;;;5005084;28;20113;-83
2023/09/27 05:49:11;;;;;;;74.57;40.83;;;9.20;99.90;;;;;;4992540;28;20032;-83
2023/09/27 05:51:37;;;;;;;65.38;37.50;;;9.20;99.90;;;;;;5002210;28;20428;-83
2023/09/27 05:54:05;;;;;;;63.80;36.67;;;9.20;99.90;;;;;;4997487;28;20087;-84
2023/09/27 05:56:33;;;;;;;69.43;37.40;;;9.20;99.90;;;;;;5014104;28;20043;-84
2023/09/27 05:58:59;;;;;;;65.18;36.95;;;9.20;99.90;;;;;;5021123;28;20812;-84
2023/09/27 06:01:25;;;;;;;74.32;38.25;;;9.20;99.90;;;;;;4992372;28;20913;-83
2023/09/27 06:03:51;;;;;;;67.57;37.65;;;9.30;99.90;;;;;;5009752;28;20037;-84
2023/09/27 06:06:17;;;;;;;68.53;37.17;;;9.50;99.90;;;;;;5031762;28;20477;-84
2023/09/27 06:08:43;;;;;;;90.43;44.67;;;9.70;99.90;;;;;;5001491;28;20037;-84
2023/09/27 06:11:10;;;;;;;84.40;46.35;;;9.90;99.90;;;;;;4995786;28;20033;-84
2023/09/27 06:13:37;;;;;;;81.72;43.15;;;10.20;99.90;;;;;;5004400;28;20448;-84
2023/09/27 06:16:03;;;;;;;81.45;44.22;;;10.20;99.90;;;;;;5021194;28;20026;-84
2023/09/27 06:18:28;;;;;;;80.85;42.70;;;10.20;99.90;;;;;;4993999;28;20087;-84
2023/09/27 06:20:54;;;;;;;84.43;43.50;;;10.30;99.90;;;;;;5007108;28;20041;-84
2023/09/27 06:23:21;;;;;;;79.35;42.38;;;10.40;99.90;;;;;;5003902;28;20049;-84
2023/09/27 06:25:47;;;;;;;76.00;40.47;;;10.50;99.90;;;;;;4997071;28;20048;-84
2023/09/27 06:28:18;;;;;;;77.97;40.78;;;10.50;99.90;;;;;;5009911;28;20033;-84
2023/09/27 06:30:44;;;;;;;87.20;45.80;;;10.50;99.90;;;;;;5001626;28;20039;-84
2023/09/27 06:33:10;;;;;;;75.50;44.42;;;10.60;99.90;;;;;;4991436;28;20433;-84
2023/09/27 06:35:37;;;;;;;83.78;43.33;;;10.90;99.90;;;;;;5000918;28;20440;-84
2023/09/27 06:38:03;;;;;;;81.72;42.80;;;11.00;99.90;;;;;;5027903;28;20036;-84
2023/09/27 06:40:29;;;;;;;76.53;41.50;;;11.10;99.90;;;;;;5013275;28;20021;-84
2023/09/27 06:42:55;;;;;;;77.28;43.38;;;11.30;99.90;;;;;;5001570;28;20531;-83
2023/09/27 06:45:22;;;;;;;69.82;39.50;;;11.40;99.90;;;;;;5030131;28;20033;-84
2023/09/27 06:47:48;;;;;;;73.28;39.75;;;11.50;99.90;;;;;;5015300;28;20036;-83
2023/09/27 06:50:16;;;;;;;77.22;40.25;;;11.70;99.90;;;;;;5014969;28;20034;-84
2023/09/27 06:52:43;;;;;;;74.13;42.28;;;11.90;99.90;;;;;;5014434;28;20033;-84
2023/09/27 06:55:10;;;;;;;76.82;42.95;;;12.00;99.90;;;;;;5000301;28;20033;-84
2023/09/27 06:57:40;;;;;;;78.20;41.03;;;12.20;99.90;;;;;;5028348;28;20041;-84
2023/09/27 07:00:12;;;;;;;90.05;45.55;;;12.40;99.90;;;;;;5011770;28;20042;-83
2023/09/27 07:02:41;;;;;;;91.50;46.28;;;12.50;99.90;;;;;;5006330;28;20038;-83
2023/09/27 07:05:08;;;;;;;88.82;44.92;;;12.70;99.90;;;;;;5031134;28;20044;-83
2023/09/27 07:07:34;;;;;;;95.00;47.67;;;12.80;99.90;;;;;;4997262;28;20022;-84
2023/09/27 07:10:00;;;;;;;84.18;46.63;;;12.90;99.90;;;;;;4998835;28;20033;-83
2023/09/27 07:12:26;;;;;;;86.40;44.20;;;13.20;99.90;;;;;;5028791;28;20703;-83
2023/09/27 07:14:52;;;;;;;83.47;43.60;;;13.40;99.90;;;;;;5005552;28;20026;-84
2023/09/27 07:17:18;;;;;;;74.82;43.10;;;13.50;99.90;;;;;;5033285;28;20032;-84
2023/09/27 07:19:43;;;;;;;72.38;39.63;;;13.60;99.90;;;;;;5028917;28;20115;-84
2023/09/27 07:22:10;;;;;;;63.47;40.13;;;13.70;99.90;;;;;;5014627;28;20408;-84
2023/09/27 07:24:36;;;;;;;61.88;38.38;;;13.80;99.90;;;;;;5036044;28;20104;-84
2023/09/27 07:27:02;;;;;;;51.28;33.95;;;14.00;99.90;;;;;;5007512;28;20033;-83
2023/09/27 07:29:30;;;;;;;47.92;31.38;;;14.00;99.90;;;;;;5008635;28;20041;-83
2023/09/27 07:31:55;;;;;;;45.08;30.23;;;14.10;99.90;;;;;;4997552;28;20064;-84
2023/09/27 07:34:21;;;;;;;44.33;28.60;;;14.20;99.90;;;;;;5021815;28;20499;-83
2023/09/27 07:36:47;;;;;;;36.92;25.55;;;14.30;99.90;;;;;;5010951;28;20127;-84
2023/09/27 07:39:14;;;;;;;38.30;24.65;;;14.40;99.90;;;;;;4986491;28;20503;-84
2023/09/27 07:41:41;;;;;;;31.00;22.50;;;14.40;99.90;;;;;;5011989;28;20116;-84
2023/09/27 07:44:09;;;;;;;36.35;22.00;;;14.50;99.90;;;;;;5006594;28;20558;-84
2023/09/27 07:46:36;;;;;;;35.40;22.58;;;14.60;99.90;;;;;;4991421;28;20128;-84
2023/09/27 07:49:02;;;;;;;32.22;21.83;;;14.70;99.90;;;;;;5001254;28;20018;-83
2023/09/27 07:51:29;;;;;;;36.70;20.45;;;14.80;99.90;;;;;;4997863;28;20481;-84
2023/09/27 07:53:54;;;;;;;28.23;19.05;;;14.80;99.90;;;;;;5028427;28;20108;-84
2023/09/27 07:56:22;;;;;;;29.65;20.60;;;14.90;99.90;;;;;;4998944;28;20120;-84
2023/09/27 07:58:51;;;;;;;28.60;19.45;;;15.00;99.90;;;;;;5030567;28;20030;-84
2023/09/27 08:01:20;;;;;;;28.35;19.08;;;15.10;99.90;;;;;;5008126;28;20481;-84
2023/09/27 08:03:48;;;;;;;25.80;18.60;;;15.10;99.90;;;;;;5000802;28;20029;-84
2023/09/27 08:06:16;;;;;;;29.42;19.35;;;15.20;99.90;;;;;;5032702;28;20034;-84
2023/09/27 08:08:43;;;;;;;24.88;19.52;;;15.20;99.90;;;;;;4998761;28;20022;-84
2023/09/27 08:11:11;;;;;;;24.50;18.23;;;15.20;99.90;;;;;;5025130;28;20025;-85
2023/09/27 08:13:37;;;;;;;28.60;20.67;;;15.20;99.90;;;;;;4996295;28;20036;-84
2023/09/27 08:16:06;;;;;;;31.30;19.20;;;15.30;99.90;;;;;;5011495;28;20549;-84
2023/09/27 08:18:33;;;;;;;28.55;18.88;;;15.40;99.90;;;;;;5005264;28;20026;-84
2023/09/27 08:20:59;;;;;;;27.63;18.67;;;15.50;99.90;;;;;;5018061;28;20392;-84
2023/09/27 08:24:17;;;;;;;29.58;19.27;;;15.60;99.90;;;;;;5014899;28;20029;-84
2023/09/27 08:26:43;;;;;;;32.08;18.73;;;15.80;99.90;;;;;;5005222;28;20034;-84
2023/09/27 08:29:09;;;;;;;29.80;18.77;;;16.10;99.90;;;;;;5013685;28;20086;-84
2023/09/27 08:31:37;;;;;;;31.42;18.40;;;16.20;99.90;;;;;;5015645;28;20060;-84
2023/09/27 08:34:23;;;;;;;23.02;17.05;;;16.30;99.90;;;;;;5012464;28;20026;-84
2023/09/27 08:36:48;;;;;;;23.20;16.58;;;16.40;99.90;;;;;;4994059;28;20065;-84
2023/09/27 08:39:15;;;;;;;23.58;15.75;;;16.60;99.90;;;;;;5021741;28;20076;-84
2023/09/27 08:41:40;;;;;;;19.30;14.30;;;17.10;99.90;;;;;;4994913;28;20032;-84
2023/09/27 08:44:07;;;;;;;15.27;11.75;;;18.10;99.90;;;;;;5014662;28;20034;-84
2023/09/27 08:46:35;;;;;;;14.70;11.00;;;19.20;99.90;;;;;;5019243;28;20033;-84
2023/09/27 08:49:15;;;;;;;14.38;10.65;;;20.40;99.90;;;;;;4986022;28;20044;-84
2023/09/27 08:51:43;;;;;;;13.48;10.52;;;21.00;99.90;;;;;;4985029;28;20029;-84
2023/09/27 08:54:09;;;;;;;17.13;11.10;;;21.40;99.90;;;;;;4996027;28;20108;-84
2023/09/27 08:56:35;;;;;;;12.25;9.93;;;21.10;99.90;;;;;;5018696;28;20034;-84
2023/09/27 08:59:03;;;;;;;11.80;9.57;;;20.80;99.90;;;;;;5004929;28;20056;-84
2023/09/27 09:01:33;;;;;;;10.40;9.07;;;20.70;99.90;;;;;;4995334;28;20036;-84
2023/09/27 09:03:59;;;;;;;12.07;8.95;;;20.60;99.90;;;;;;5029468;28;20030;-84
2023/09/27 09:06:29;;;;;;;13.70;9.52;;;20.50;99.90;;;;;;4995061;28;20140;-84
2023/09/27 09:08:54;;;;;;;14.75;9.30;;;20.30;99.90;;;;;;5007213;28;20033;-85
2023/09/27 09:11:22;;;;;;;13.13;9.07;;;20.50;99.90;;;;;;5023141;28;20018;-84
2023/09/27 09:14:03;;;;;;;12.52;9.18;;;20.30;99.90;;;;;;5023173;28;20033;-84
2023/09/27 09:16:39;;;;;;;10.85;9.23;;;20.40;99.90;;;;;;4998235;28;20100;-84
2023/09/27 09:19:24;;;;;;;15.52;9.05;;;20.30;99.90;;;;;;5028022;28;20060;-84
2023/09/27 09:21:57;;;;;;;15.85;9.68;;;20.30;99.90;;;;;;5003985;28;20113;-84
2023/09/27 09:24:23;;;;;;;9.85;8.32;;;20.30;99.90;;;;;;5029350;28;20050;-85
2023/09/27 09:27:08;;;;;;;12.15;8.23;;;20.70;99.90;;;;;;5012245;28;20132;-84
2023/09/27 09:29:45;;;;;;;12.57;8.18;;;21.30;99.90;;;;;;5014027;28;20036;-84
2023/09/27 09:32:11;;;;;;;13.18;8.15;;;21.50;99.90;;;;;;5008722;28;20034;-85
2023/09/27 09:34:41;;;;;;;12.27;9.00;;;21.70;99.90;;;;;;5009401;28;20060;-84
2023/09/27 09:37:23;;;;;;;11.02;8.13;;;22.00;99.90;;;;;;5003778;28;20030;-85
2023/09/27 09:39:53;;;;;;;12.15;7.78;;;22.40;99.90;;;;;;5023087;28;20060;-84
2023/09/27 09:42:39;;;;;;;9.23;8.00;;;23.10;99.90;;;;;;5008968;28;20044;-84
2023/09/27 09:45:12;;;;;;;8.68;7.03;;;22.80;99.90;;;;;;5025208;28;20042;-86
2023/09/27 09:47:40;;;;;;;12.98;7.45;;;22.80;99.90;;;;;;5007836;28;20045;-85
2023/09/27 09:50:08;;;;;;;13.23;7.10;;;23.40;99.90;;;;;;5027398;28;20071;-85
2023/09/27 09:52:38;;;;;;;10.38;7.55;;;23.80;99.90;;;;;;5020812;28;20037;-84
2023/09/27 09:55:08;;;;;;;9.43;7.63;;;23.70;99.90;;;;;;5003722;28;20030;-85
2023/09/27 09:57:40;;;;;;;12.77;6.57;;;23.80;99.90;;;;;;5010105;28;20741;-85
2023/09/27 10:00:16;;;;;;;8.63;6.18;;;24.20;99.90;;;;;;5009921;28;20037;-85
2023/09/27 10:03:00;;;;;;;9.85;7.40;;;24.80;99.90;;;;;;5029528;28;20640;-85
2023/09/27 10:05:32;;;;;;;11.40;6.43;;;25.20;99.90;;;;;;5012634;28;20068;-85
2023/09/27 10:07:59;;;;;;;10.10;6.25;;;25.30;99.90;;;;;;5017724;28;20072;-85
2023/09/27 10:10:26;;;;;;;8.18;6.75;;;25.70;99.90;;;;;;4982603;28;20428;-85
2023/09/27 10:12:54;;;;;;;10.77;7.53;;;25.80;99.90;;;;;;5008127;28;20065;-84
2023/09/27 10:15:21;;;;;;;11.02;6.75;;;25.50;99.90;;;;;;5012666;28;20036;-85
2023/09/27 10:17:47;;;;;;;9.93;7.78;;;24.80;99.90;;;;;;5013279;28;20096;-84
2023/09/27 10:20:17;;;;;;;9.82;6.53;;;24.10;99.90;;;;;;5025800;28;20647;-85
2023/09/27 10:22:45;;;;;;;14.07;7.05;;;24.10;99.90;;;;;;5024112;28;20531;-85
2023/09/27 10:25:26;;;;;;;10.13;6.05;;;24.30;99.90;;;;;;5004424;28;20033;-85
2023/09/27 10:28:01;;;;;;;10.18;6.45;;;24.40;99.90;;;;;;4980759;28;20030;-85
2023/09/27 10:30:45;;;;;;;9.15;6.43;;;24.60;99.90;;;;;;4978924;28;20026;-86
2023/09/27 10:33:17;;;;;;;7.90;6.50;;;25.00;99.90;;;;;;5021620;28;20103;-85
2023/09/27 10:35:47;;;;;;;6.35;5.63;;;25.10;99.90;;;;;;4981685;28;20456;-85
2023/09/27 10:38:13;;;;;;;8.45;6.35;;;25.50;99.90;;;;;;5013702;28;20065;-82
2023/09/27 10:40:43;;;;;;;23.75;7.20;;;25.40;99.90;;;;;;5009501;28;20445;-83
2023/09/27 10:43:30;;;;;;;6.47;4.88;;;25.50;99.90;;;;;;5016805;28;20525;-83
2023/09/27 10:45:56;;;;;;;7.78;4.80;;;25.40;99.90;;;;;;5009537;28;20092;-83
2023/09/27 10:48:22;;;;;;;7.63;4.75;;;25.80;99.90;;;;;;5014108;28;20737;-84
2023/09/27 10:50:57;;;;;;;8.52;4.63;;;25.90;99.90;;;;;;4994058;28;20145;-84
2023/09/27 10:53:23;;;;;;;4.45;4.05;;;26.10;99.90;;;;;;5011047;28;20030;-83
2023/09/27 10:55:49;;;;;;;9.05;5.15;;;26.30;99.90;;;;;;4997696;28;20033;-83
2023/09/27 10:58:15;;;;;;;10.52;4.85;;;26.60;99.90;;;;;;5004335;28;20461;-84
2023/09/27 11:00:51;;;;;;;10.63;4.55;;;27.10;99.90;;;;;;4992240;28;20029;-83
2023/09/27 11:03:17;;;;;;;5.03;4.28;;;27.30;99.90;;;;;;4996450;28;20507;-83
2023/09/27 11:05:43;;;;;;;7.68;4.95;;;27.30;99.90;;;;;;5008598;28;20024;-82
2023/09/27 11:08:09;;;;;;;9.73;5.70;;;27.40;99.90;;;;;;5020380;28;20117;-84
2023/09/27 11:10:35;;;;;;;5.65;4.25;;;27.20;99.90;;;;;;5010479;28;20117;-84
2023/09/27 11:13:12;;;;;;;5.03;4.30;;;27.10;99.90;;;;;;5008304;28;20037;-84
2023/09/27 11:15:42;;;;;;;18.13;4.07;;;27.50;99.90;;;;;;5010523;28;20030;-84
2023/09/27 11:18:08;;;;;;;8.07;3.90;;;27.80;99.90;;;;;;5009513;28;20038;-84
2023/09/27 11:20:34;;;;;;;4.38;3.85;;;28.20;99.90;;;;;;5013718;28;20083;-83
2023/09/27 11:23:02;;;;;;;9.82;3.72;;;27.80;99.90;;;;;;5025589;28;20017;-83
2023/09/27 11:25:36;;;;;;;6.10;3.42;;;27.50;99.90;;;;;;4999207;28;20038;-83
2023/09/27 11:28:02;;;;;;;6.35;2.92;;;27.10;99.90;;;;;;5004303;28;20026;-83
2023/09/27 11:30:32;;;;;;;7.07;3.53;;;27.10;99.90;;;;;;5015498;28;20033;-83
2023/09/27 11:33:07;;;;;;;5.13;3.35;;;27.70;99.90;;;;;;4998513;28;20033;-83
2023/09/27 11:35:34;;;;;;;4.40;3.47;;;27.70;99.90;;;;;;4999538;28;20048;-83
2023/09/27 11:38:07;;;;;;;3.40;2.80;;;28.60;99.90;;;;;;5006341;28;20858;-83
2023/09/27 11:40:43;;;;;;;8.07;3.33;;;28.80;99.90;;;;;;5022826;28;20022;-86
2023/09/27 11:43:09;;;;;;;7.75;3.47;;;28.90;99.40;;;;;;5012738;28;20029;-86
2023/09/27 11:45:48;;;;;;;5.97;3.50;;;29.00;98.60;;;;;;4991500;28;20050;-86
2023/09/27 11:48:14;;;;;;;5.75;3.67;;;29.30;98.90;;;;;;5016464;28;20026;-86
2023/09/27 11:50:40;;;;;;;4.20;2.90;;;29.00;98.80;;;;;;5015772;28;20041;-86
2023/09/27 11:53:06;;;;;;;4.20;3.13;;;28.70;98.70;;;;;;5026877;28;20057;-85
2023/09/27 11:55:32;;;;;;;4.38;2.63;;;27.80;98.00;;;;;;5014653;28;20431;-85
2023/09/27 11:57:58;;;;;;;5.43;2.75;;;27.30;98.20;;;;;;5010413;28;20034;-86
2023/09/27 12:00:24;;;;;;;3.83;2.72;;;27.20;98.10;;;;;;5015859;28;20037;-86
2023/09/27 12:03:21;;;;;;;5.65;3.00;;;27.50;98.10;;;;;;5016373;28;20033;-86
2023/09/27 12:05:48;;;;;;;8.13;3.58;;;27.40;99.90;;;;;;5029485;28;20021;-86
2023/09/27 12:08:13;;;;;;;5.10;2.75;;;28.00;99.30;;;;;;5020842;28;20608;-86
2023/09/27 12:10:39;;;;;;;3.72;2.97;;;27.80;98.10;;;;;;5013454;28;20026;-85
2023/09/27 12:13:05;;;;;;;6.10;2.83;;;28.10;98.70;;;;;;5014347;28;20540;-86
2023/09/27 12:15:31;;;;;;;3.20;2.65;;;28.20;98.90;;;;;;4998373;28;20120;-85
2023/09/27 12:17:56;;;;;;;6.90;2.67;;;28.30;97.20;;;;;;5004109;28;20867;-85
2023/09/27 12:20:22;;;;;;;6.15;3.25;;;27.50;96.60;;;;;;5012625;28;20133;-86
2023/09/27 12:22:48;;;;;;;4.10;3.28;;;27.70;97.10;;;;;;4997048;28;20135;-86
2023/09/27 12:25:14;;;;;;;4.38;3.10;;;27.40;96.50;;;;;;5007951;28;20049;-86
2023/09/27 12:27:40;;;;;;;3.45;2.80;;;27.40;96.90;;;;;;5006210;28;20696;-85
2023/09/27 12:30:06;;;;;;;5.75;2.97;;;27.70;96.80;;;;;;4993271;28;20048;-85
2023/09/27 12:32:32;;;;;;;4.93;3.28;;;27.50;97.80;;;;;;5010226;28;20033;-85
2023/09/27 12:34:58;;;;;;;7.28;3.35;;;26.50;97.30;;;;;;5009764;28;20029;-84
2023/09/27 12:37:23;;;;;;;6.13;2.95;;;26.00;97.40;;;;;;4984452;28;20088;-85
2023/09/27 12:39:49;;;;;;;6.35;3.72;;;26.10;99.80;;;;;;5020099;28;20033;-86
2023/09/27 12:42:15;;;;;;;5.30;3.33;;;26.20;99.30;;;;;;5000092;28;20783;-85
2023/09/27 12:44:40;;;;;;;6.10;3.60;;;26.10;98.90;;;;;;5015337;28;20468;-85